sensor_id;sensor_type;location;lat;lon;timestamp;pressure;altitude;pressure_sealevel;temperature;humidity
50282;BME280;36176;51.506;10.272;2023-03-13T00:01:58;58343.00;;;-145.31;100.00
50282;BME280;36176;51.506;10.272;2023-03-13T00:04:26;58343.00;;;-145.31;100.00
50282;BME280;36176;51.506;10.272;2023-03-13T00:06:53;58343.00;;;-145.31;100.00
50282;BME280;36176;51.506;10.272;2023-03-13T00:09:20;58343.00;;;-145.31;100.00
50282;BME280;36176;51.506;10.272;2023-03-13T00:11:49;58343.00;;;-145.31;100.00
50282;BME280;36176;51.506;10.272;2023-03-13T00:14:16;58343.00;;;-145.31;100.00
50282;BME280;36176;51.506;10.272;2023-03-13T00:16:43;98571.84;;;8.35;80.48
50282;BME280;36176;51.506;10.272;2023-03-13T00:19:11;98560.53;;;8.32;80.03
50282;BME280;36176;51.506;10.272;2023-03-13T00:21:38;98560.13;;;8.40;79.24
50282;BME280;36176;51.506;10.272;2023-03-13T00:24:08;98559.22;;;8.41;79.33
50282;BME280;36176;51.506;10.272;2023-03-13T00:26:36;98541.66;;;8.40;79.08
50282;BME280;36176;51.506;10.272;2023-03-13T00:29:03;98533.44;;;8.46;79.33
50282;BME280;36176;51.506;10.272;2023-03-13T00:31:30;98540.41;;;8.47;79.04
50282;BME280;36176;51.506;10.272;2023-03-13T00:34:00;98544.78;;;8.48;79.21
50282;BME280;36176;51.506;10.272;2023-03-13T00:36:29;98546.63;;;8.46;79.09
50282;BME280;36176;51.506;10.272;2023-03-13T00:38:57;98545.31;;;8.55;78.57
50282;BME280;36176;51.506;10.272;2023-03-13T00:41:27;98533.63;;;8.59;78.64
50282;BME280;36176;51.506;10.272;2023-03-13T00:43:55;98528.34;;;8.59;78.93
50282;BME280;36176;51.506;10.272;2023-03-13T00:46:25;98525.81;;;8.58;78.73
50282;BME280;36176;51.506;10.272;2023-03-13T00:48:52;98518.78;;;8.57;78.81
50282;BME280;36176;51.506;10.272;2023-03-13T00:51:20;98517.69;;;8.61;78.46
50282;BME280;36176;51.506;10.272;2023-03-13T00:53:47;98506.72;;;8.52;79.17
50282;BME280;36176;51.506;10.272;2023-03-13T00:56:16;98506.72;;;8.52;78.86
50282;BME280;36176;51.506;10.272;2023-03-13T00:58:44;98505.25;;;8.47;79.41
50282;BME280;36176;51.506;10.272;2023-03-13T01:03:42;98495.94;;;8.40;79.80
50282;BME280;36176;51.506;10.272;2023-03-13T01:06:12;98497.78;;;8.38;79.98
50282;BME280;36176;51.506;10.272;2023-03-13T01:08:40;98488.41;;;8.32;80.36
50282;BME280;36176;51.506;10.272;2023-03-13T01:11:10;98484.09;;;8.31;79.55
50282;BME280;36176;51.506;10.272;2023-03-13T01:13:38;98478.88;;;8.29;80.33
50282;BME280;36176;51.506;10.272;2023-03-13T01:16:17;98472.66;;;8.30;80.50
50282;BME280;36176;51.506;10.272;2023-03-13T01:18:47;98475.28;;;8.30;80.26
50282;BME280;36176;51.506;10.272;2023-03-13T01:21:16;98468.91;;;8.35;80.10
50282;BME280;36176;51.506;10.272;2023-03-13T01:23:46;98464.34;;;8.38;79.61
50282;BME280;36176;51.506;10.272;2023-03-13T01:26:14;98457.13;;;8.42;79.63
50282;BME280;36176;51.506;10.272;2023-03-13T01:28:41;98453.78;;;8.38;79.39
50282;BME280;36176;51.506;10.272;2023-03-13T01:31:17;98454.56;;;8.40;79.94
50282;BME280;36176;51.506;10.272;2023-03-13T01:33:46;98445.78;;;8.40;79.70
50282;BME280;36176;51.506;10.272;2023-03-13T01:36:13;98439.63;;;8.39;79.53
50282;BME280;36176;51.506;10.272;2023-03-13T01:38:40;98438.97;;;8.36;79.71
50282;BME280;36176;51.506;10.272;2023-03-13T01:41:10;98433.69;;;8.36;80.35
50282;BME280;36176;51.506;10.272;2023-03-13T01:43:39;98431.91;;;8.36;80.40
50282;BME280;36176;51.506;10.272;2023-03-13T01:56:35;98409.63;;;8.58;79.96
50282;BME280;36176;51.506;10.272;2023-03-13T01:59:04;98404.34;;;8.58;80.13
50282;BME280;36176;51.506;10.272;2023-03-13T02:01:33;98396.56;;;8.55;80.51
50282;BME280;36176;51.506;10.272;2023-03-13T02:04:01;98401.13;;;8.52;80.52
50282;BME280;36176;51.506;10.272;2023-03-13T02:06:30;98399.06;;;8.58;80.22
50282;BME280;36176;51.506;10.272;2023-03-13T02:09:02;98387.56;;;8.59;79.87
50282;BME280;36176;51.506;10.272;2023-03-13T02:11:39;98386.88;;;8.55;80.59
50282;BME280;36176;51.506;10.272;2023-03-13T02:14:09;98383.56;;;8.51;80.30
50282;BME280;36176;51.506;10.272;2023-03-13T02:16:36;98372.22;;;8.49;80.74
50282;BME280;36176;51.506;10.272;2023-03-13T02:19:38;98376.72;;;8.47;80.91
50282;BME280;36176;51.506;10.272;2023-03-13T02:27:30;98357.22;;;8.34;81.39
50282;BME280;36176;51.506;10.272;2023-03-13T02:29:58;98350.41;;;8.30;81.52
50282;BME280;36176;51.506;10.272;2023-03-13T02:32:26;98348.88;;;8.26;81.32
50282;BME280;36176;51.506;10.272;2023-03-13T02:34:56;98338.50;;;8.23;81.86
50282;BME280;36176;51.506;10.272;2023-03-13T02:37:25;98336.69;;;8.23;82.25
50282;BME280;36176;51.506;10.272;2023-03-13T02:39:55;98324.53;;;8.21;81.88
50282;BME280;36176;51.506;10.272;2023-03-13T02:42:24;98327.41;;;8.16;82.94
50282;BME280;36176;51.506;10.272;2023-03-13T02:44:51;98333.72;;;8.14;82.83
50282;BME280;36176;51.506;10.272;2023-03-13T02:47:20;98325.22;;;8.08;83.10
50282;BME280;36176;51.506;10.272;2023-03-13T02:49:48;98318.41;;;8.04;83.48
50282;BME280;36176;51.506;10.272;2023-03-13T02:52:22;98312.53;;;7.99;83.93
50282;BME280;36176;51.506;10.272;2023-03-13T02:54:57;98307.44;;;7.96;84.50
50282;BME280;36176;51.506;10.272;2023-03-13T02:57:26;98288.72;;;8.01;84.29
50282;BME280;36176;51.506;10.272;2023-03-13T02:59:53;98295.59;;;8.03;83.98
50282;BME280;36176;51.506;10.272;2023-03-13T03:02:20;98292.00;;;8.04;83.91
50282;BME280;36176;51.506;10.272;2023-03-13T03:04:48;98297.16;;;8.07;83.97
50282;BME280;36176;51.506;10.272;2023-03-13T03:07:15;98288.28;;;8.08;84.13
50282;BME280;36176;51.506;10.272;2023-03-13T03:09:42;98287.19;;;8.13;83.72
50282;BME280;36176;51.506;10.272;2023-03-13T03:12:09;98278.25;;;8.15;83.69
50282;BME280;36176;51.506;10.272;2023-03-13T03:14:36;98286.06;;;8.17;83.10
50282;BME280;36176;51.506;10.272;2023-03-13T03:17:04;98275.53;;;8.17;83.29
50282;BME280;36176;51.506;10.272;2023-03-13T03:19:31;98274.41;;;8.21;83.52
50282;BME280;36176;51.506;10.272;2023-03-13T03:21:58;98257.47;;;8.25;83.67
50282;BME280;36176;51.506;10.272;2023-03-13T03:24:25;98245.22;;;8.24;83.28
50282;BME280;36176;51.506;10.272;2023-03-13T03:26:52;98238.22;;;8.23;83.71
50282;BME280;36176;51.506;10.272;2023-03-13T03:29:19;98229.66;;;8.19;83.53
50282;BME280;36176;51.506;10.272;2023-03-13T03:31:46;98226.06;;;8.20;83.77
50282;BME280;36176;51.506;10.272;2023-03-13T03:34:13;98220.84;;;8.19;84.15
50282;BME280;36176;51.506;10.272;2023-03-13T03:36:40;98210.31;;;8.19;84.61
50282;BME280;36176;51.506;10.272;2023-03-13T03:39:08;98209.19;;;8.23;84.41
50282;BME280;36176;51.506;10.272;2023-03-13T03:41:35;98200.09;;;8.28;84.03
50282;BME280;36176;51.506;10.272;2023-03-13T03:44:03;98196.25;;;8.34;83.59
50282;BME280;36176;51.506;10.272;2023-03-13T03:46:30;98186.34;;;8.38;83.84
50282;BME280;36176;51.506;10.272;2023-03-13T03:48:57;98177.50;;;8.39;84.38
50282;BME280;36176;51.506;10.272;2023-03-13T03:51:24;98180.94;;;8.41;83.64
50282;BME280;36176;51.506;10.272;2023-03-13T03:53:52;98165.13;;;8.39;84.75
50282;BME280;36176;51.506;10.272;2023-03-13T03:56:19;98156.22;;;8.42;84.45
50282;BME280;36176;51.506;10.272;2023-03-13T03:58:46;98149.06;;;8.44;84.41
50282;BME280;36176;51.506;10.272;2023-03-13T04:01:13;98138.44;;;8.45;85.03
50282;BME280;36176;51.506;10.272;2023-03-13T04:03:40;98133.31;;;8.42;85.26
50282;BME280;36176;51.506;10.272;2023-03-13T04:06:07;98128.03;;;8.42;85.35
50282;BME280;36176;51.506;10.272;2023-03-13T04:08:35;98124.28;;;8.46;86.44
50282;BME280;36176;51.506;10.272;2023-03-13T04:11:02;98113.53;;;8.49;87.04
50282;BME280;36176;51.506;10.272;2023-03-13T04:13:29;98117.88;;;8.50;87.00
50282;BME280;36176;51.506;10.272;2023-03-13T04:15:56;98111.34;;;8.42;88.50
50282;BME280;36176;51.506;10.272;2023-03-13T04:18:23;98107.78;;;8.43;88.78
50282;BME280;36176;51.506;10.272;2023-03-13T04:20:59;98102.31;;;8.46;88.54
50282;BME280;36176;51.506;10.272;2023-03-13T04:23:27;98098.06;;;8.43;88.89
50282;BME280;36176;51.506;10.272;2023-03-13T04:25:54;98095.25;;;8.46;89.18
50282;BME280;36176;51.506;10.272;2023-03-13T04:28:21;98097.13;;;8.44;89.85
50282;BME280;36176;51.506;10.272;2023-03-13T04:30:48;98098.06;;;8.43;90.13
50282;BME280;36176;51.506;10.272;2023-03-13T04:33:15;98074.31;;;8.43;90.58
50282;BME280;36176;51.506;10.272;2023-03-13T04:35:43;98069.88;;;8.44;90.60
50282;BME280;36176;51.506;10.272;2023-03-13T04:38:10;98057.72;;;8.41;91.17
50282;BME280;36176;51.506;10.272;2023-03-13T04:40:37;98051.50;;;8.42;91.22
50282;BME280;36176;51.506;10.272;2023-03-13T04:43:04;98045.09;;;8.46;91.09
50282;BME280;36176;51.506;10.272;2023-03-13T04:45:31;98024.16;;;8.43;91.75
50282;BME280;36176;51.506;10.272;2023-03-13T04:47:58;98016.50;;;8.39;91.86
50282;BME280;36176;51.506;10.272;2023-03-13T04:50:25;98004.09;;;8.41;91.94
50282;BME280;36176;51.506;10.272;2023-03-13T04:52:51;98001.81;;;8.49;91.38
50282;BME280;36176;51.506;10.272;2023-03-13T04:55:19;98013.06;;;8.52;92.14
50282;BME280;36176;51.506;10.272;2023-03-13T04:57:46;98033.00;;;8.57;92.02
50282;BME280;36176;51.506;10.272;2023-03-13T05:00:13;98025.00;;;8.58;91.99
50282;BME280;36176;51.506;10.272;2023-03-13T05:02:41;98031.41;;;8.54;93.11
50282;BME280;36176;51.506;10.272;2023-03-13T05:05:08;98031.13;;;8.59;92.91
50282;BME280;36176;51.506;10.272;2023-03-13T05:07:35;98031.03;;;8.60;92.83
50282;BME280;36176;51.506;10.272;2023-03-13T05:10:02;98036.81;;;8.67;93.16
50282;BME280;36176;51.506;10.272;2023-03-13T05:12:29;98053.28;;;8.70;92.90
50282;BME280;36176;51.506;10.272;2023-03-13T05:14:56;98041.69;;;8.73;92.52
50282;BME280;36176;51.506;10.272;2023-03-13T05:17:23;98031.03;;;8.75;92.95
50282;BME280;36176;51.506;10.272;2023-03-13T05:19:50;98015.28;;;8.73;93.01
50282;BME280;36176;51.506;10.272;2023-03-13T05:22:17;98007.06;;;8.78;92.89
50282;BME280;36176;51.506;10.272;2023-03-13T05:24:44;97996.22;;;8.82;92.91
50282;BME280;36176;51.506;10.272;2023-03-13T05:27:11;97995.25;;;8.83;93.01
50282;BME280;36176;51.506;10.272;2023-03-13T05:29:38;97997.53;;;8.89;92.70
50282;BME280;36176;51.506;10.272;2023-03-13T05:32:05;97989.38;;;8.92;93.15
50282;BME280;36176;51.506;10.272;2023-03-13T05:34:32;97987.50;;;8.94;93.93
50282;BME280;36176;51.506;10.272;2023-03-13T05:36:59;97997.13;;;8.96;94.16
50282;BME280;36176;51.506;10.272;2023-03-13T05:39:27;97981.28;;;8.96;94.55
50282;BME280;36176;51.506;10.272;2023-03-13T05:41:54;97996.94;;;8.99;94.69
50282;BME280;36176;51.506;10.272;2023-03-13T05:44:20;97999.78;;;8.96;95.62
50282;BME280;36176;51.506;10.272;2023-03-13T05:46:47;98008.44;;;8.98;95.75
50282;BME280;36176;51.506;10.272;2023-03-13T05:49:14;98011.19;;;8.96;96.37
50282;BME280;36176;51.506;10.272;2023-03-13T05:51:41;98020.91;;;8.96;96.06
50282;BME280;36176;51.506;10.272;2023-03-13T05:54:08;98004.03;;;8.98;95.57
50282;BME280;36176;51.506;10.272;2023-03-13T05:56:35;98000.88;;;9.06;95.26
50282;BME280;36176;51.506;10.272;2023-03-13T05:59:02;98001.44;;;9.11;94.89
50282;BME280;36176;51.506;10.272;2023-03-13T06:01:29;98006.41;;;9.15;94.68
50282;BME280;36176;51.506;10.272;2023-03-13T06:03:56;98005.28;;;9.20;94.61
50282;BME280;36176;51.506;10.272;2023-03-13T06:06:23;98008.00;;;9.18;95.07
50282;BME280;36176;51.506;10.272;2023-03-13T06:08:51;98005.28;;;9.20;94.56
50282;BME280;36176;51.506;10.272;2023-03-13T06:11:19;97984.69;;;9.25;94.42
50282;BME280;36176;51.506;10.272;2023-03-13T06:13:46;97982.97;;;9.24;94.90
50282;BME280;36176;51.506;10.272;2023-03-13T06:16:13;97972.09;;;9.28;94.08
50282;BME280;36176;51.506;10.272;2023-03-13T06:18:40;97979.09;;;9.29;94.73
50282;BME280;36176;51.506;10.272;2023-03-13T06:21:07;97965.66;;;9.32;94.46
50282;BME280;36176;51.506;10.272;2023-03-13T06:23:34;97967.16;;;9.36;94.38
50282;BME280;36176;51.506;10.272;2023-03-13T06:26:02;97958.81;;;9.43;94.36
50282;BME280;36176;51.506;10.272;2023-03-13T06:28:29;97957.88;;;9.44;94.98
50282;BME280;36176;51.506;10.272;2023-03-13T06:31:04;97953.75;;;9.52;94.54
50282;BME280;36176;51.506;10.272;2023-03-13T06:33:31;97957.28;;;9.66;94.20
50282;BME280;36176;51.506;10.272;2023-03-13T06:36:00;97940.88;;;9.73;94.13
50282;BME280;36176;51.506;10.272;2023-03-13T06:38:28;97938.91;;;9.77;94.42
50282;BME280;36176;51.506;10.272;2023-03-13T06:40:55;97937.41;;;9.86;93.79
50282;BME280;36176;51.506;10.272;2023-03-13T06:43:22;97942.06;;;9.95;93.34
50282;BME280;36176;51.506;10.272;2023-03-13T06:45:49;97942.72;;;9.98;92.92
50282;BME280;36176;51.506;10.272;2023-03-13T06:48:16;97943.13;;;10.05;93.05
50282;BME280;36176;51.506;10.272;2023-03-13T06:50:43;97929.78;;;10.07;93.02
50282;BME280;36176;51.506;10.272;2023-03-13T06:53:16;97939.09;;;10.12;93.05
50282;BME280;36176;51.506;10.272;2023-03-13T06:55:43;97933.06;;;10.23;92.51
50282;BME280;36176;51.506;10.272;2023-03-13T06:58:11;97939.94;;;10.26;92.36
50282;BME280;36176;51.506;10.272;2023-03-13T07:00:57;97947.88;;;10.26;92.64
50282;BME280;36176;51.506;10.272;2023-03-13T07:03:24;97943.53;;;10.25;92.61
50282;BME280;36176;51.506;10.272;2023-03-13T07:05:55;97946.38;;;10.21;92.43
50282;BME280;36176;51.506;10.272;2023-03-13T07:08:22;97951.16;;;10.16;92.38
50282;BME280;36176;51.506;10.272;2023-03-13T07:10:52;97941.53;;;10.15;92.68
50282;BME280;36176;51.506;10.272;2023-03-13T07:13:19;97948.63;;;10.15;92.87
50282;BME280;36176;51.506;10.272;2023-03-13T07:15:48;97939.75;;;10.16;92.96
50282;BME280;36176;51.506;10.272;2023-03-13T07:18:15;97941.22;;;10.20;93.03
50282;BME280;36176;51.506;10.272;2023-03-13T07:20:42;97944.38;;;10.25;93.21
50282;BME280;36176;51.506;10.272;2023-03-13T07:23:09;97950.25;;;10.30;93.59
50282;BME280;36176;51.506;10.272;2023-03-13T07:25:36;97949.16;;;10.33;93.98
50282;BME280;36176;51.506;10.272;2023-03-13T07:28:04;97947.88;;;10.38;93.97
50282;BME280;36176;51.506;10.272;2023-03-13T07:30:31;97952.75;;;10.45;93.11
50282;BME280;36176;51.506;10.272;2023-03-13T07:32:58;97957.81;;;10.48;93.14
50282;BME280;36176;51.506;10.272;2023-03-13T07:35:25;97944.25;;;10.52;92.56
50282;BME280;36176;51.506;10.272;2023-03-13T07:37:52;97951.13;;;10.55;92.46
50282;BME280;36176;51.506;10.272;2023-03-13T07:40:19;97952.72;;;10.57;92.56
50282;BME280;36176;51.506;10.272;2023-03-13T07:42:46;97952.81;;;10.56;92.80
50282;BME280;36176;51.506;10.272;2023-03-13T07:45:12;97956.53;;;10.53;92.65
50282;BME280;36176;51.506;10.272;2023-03-13T07:47:40;97957.28;;;10.55;92.83
50282;BME280;36176;51.506;10.272;2023-03-13T07:50:07;97961.31;;;10.61;92.91
50282;BME280;36176;51.506;10.272;2023-03-13T07:52:34;97962.56;;;10.68;92.93
50282;BME280;36176;51.506;10.272;2023-03-13T07:55:01;97962.34;;;10.71;92.74
50282;BME280;36176;51.506;10.272;2023-03-13T07:57:31;97962.75;;;10.78;92.59
50282;BME280;36176;51.506;10.272;2023-03-13T07:59:58;97964.44;;;10.79;92.63
50282;BME280;36176;51.506;10.272;2023-03-13T08:02:25;97964.00;;;10.85;92.81
50282;BME280;36176;51.506;10.272;2023-03-13T08:04:52;97951.34;;;11.01;92.08
50282;BME280;36176;51.506;10.272;2023-03-13T08:07:19;97954.16;;;11.11;91.14
50282;BME280;36176;51.506;10.272;2023-03-13T08:09:47;97956.72;;;11.24;90.93
50282;BME280;36176;51.506;10.272;2023-03-13T08:12:14;97966.91;;;11.30;90.97
50282;BME280;36176;51.506;10.272;2023-03-13T08:14:41;97956.56;;;11.38;90.32
50282;BME280;36176;51.506;10.272;2023-03-13T08:17:08;97951.75;;;11.43;90.20
50282;BME280;36176;51.506;10.272;2023-03-13T08:19:35;97939.31;;;11.44;90.15
50282;BME280;36176;51.506;10.272;2023-03-13T08:22:01;97941.78;;;11.47;90.00
50282;BME280;36176;51.506;10.272;2023-03-13T08:24:28;97941.63;;;11.48;90.18
50282;BME280;36176;51.506;10.272;2023-03-13T08:26:55;97941.63;;;11.48;89.99
50282;BME280;36176;51.506;10.272;2023-03-13T08:29:22;97938.38;;;11.45;90.58
50282;BME280;36176;51.506;10.272;2023-03-13T08:31:49;97952.59;;;11.44;90.62
50282;BME280;36176;51.506;10.272;2023-03-13T08:34:18;97951.31;;;11.49;90.66
50282;BME280;36176;51.506;10.272;2023-03-13T08:36:45;97960.50;;;11.57;90.01
50282;BME280;36176;51.506;10.272;2023-03-13T08:39:13;97975.44;;;11.58;90.38
50282;BME280;36176;51.506;10.272;2023-03-13T08:41:41;97968.31;;;11.58;90.50
50282;BME280;36176;51.506;10.272;2023-03-13T08:44:12;97971.34;;;11.65;90.26
50282;BME280;36176;51.506;10.272;2023-03-13T08:46:39;97971.13;;;11.68;90.13
50282;BME280;36176;51.506;10.272;2023-03-13T08:49:06;97978.00;;;11.70;90.11
50282;BME280;36176;51.506;10.272;2023-03-13T08:51:33;97984.38;;;11.68;90.16
50282;BME280;36176;51.506;10.272;2023-03-13T08:54:01;97973.78;;;11.68;90.71
50282;BME280;36176;51.506;10.272;2023-03-13T08:56:29;97991.50;;;11.67;90.69
50282;BME280;36176;51.506;10.272;2023-03-13T08:58:57;97985.25;;;11.68;90.84
50282;BME280;36176;51.506;10.272;2023-03-13T09:01:25;97977.91;;;11.72;90.65
50282;BME280;36176;51.506;10.272;2023-03-13T09:03:52;97971.63;;;11.73;90.36
50282;BME280;36176;51.506;10.272;2023-03-13T09:06:19;97986.69;;;11.73;90.49
50282;BME280;36176;51.506;10.272;2023-03-13T09:08:46;97978.00;;;11.70;91.07
50282;BME280;36176;51.506;10.272;2023-03-13T09:11:14;97967.53;;;11.69;91.34
50282;BME280;36176;51.506;10.272;2023-03-13T09:13:45;97967.53;;;11.80;91.15
50282;BME280;36176;51.506;10.272;2023-03-13T09:16:13;97952.88;;;11.87;90.60
50282;BME280;36176;51.506;10.272;2023-03-13T09:18:41;97968.34;;;11.94;90.57
50282;BME280;36176;51.506;10.272;2023-03-13T09:21:09;97958.69;;;12.04;90.25
50282;BME280;36176;51.506;10.272;2023-03-13T09:23:36;97953.78;;;12.22;90.00
50282;BME280;36176;51.506;10.272;2023-03-13T09:26:03;97947.97;;;12.39;89.21
50282;BME280;36176;51.506;10.272;2023-03-13T09:28:30;97941.44;;;12.54;88.26
50282;BME280;36176;51.506;10.272;2023-03-13T09:31:05;97933.94;;;12.82;87.50
50282;BME280;36176;51.506;10.272;2023-03-13T09:33:32;97918.41;;;13.10;86.24
50282;BME280;36176;51.506;10.272;2023-03-13T09:35:59;97896.41;;;13.61;84.57
50282;BME280;36176;51.506;10.272;2023-03-13T09:38:26;97896.38;;;14.74;81.89
50282;BME280;36176;51.506;10.272;2023-03-13T09:40:53;97899.53;;;15.77;74.40
50282;BME280;36176;51.506;10.272;2023-03-13T09:46:02;97880.22;;;16.67;70.34
50282;BME280;36176;51.506;10.272;2023-03-13T09:48:38;97881.75;;;17.15;69.04
50282;BME280;36176;51.506;10.272;2023-03-13T09:51:10;97874.31;;;16.36;68.29
50282;BME280;36176;51.506;10.272;2023-03-13T09:53:43;97870.28;;;15.65;71.43
50282;BME280;36176;51.506;10.272;2023-03-13T09:56:13;97867.66;;;15.26;72.84
50282;BME280;36176;51.506;10.272;2023-03-13T09:58:43;97870.03;;;15.10;73.50
50282;BME280;36176;51.506;10.272;2023-03-13T10:01:14;97861.47;;;15.55;74.67
50282;BME280;36176;51.506;10.272;2023-03-13T10:03:52;97852.63;;;16.11;70.50
50282;BME280;36176;51.506;10.272;2023-03-13T10:06:21;97831.50;;;17.27;67.44
50282;BME280;36176;51.506;10.272;2023-03-13T10:08:50;97838.53;;;17.72;64.81
50282;BME280;36176;51.506;10.272;2023-03-13T10:16:48;97830.59;;;16.83;65.11
50282;BME280;36176;51.506;10.272;2023-03-13T10:19:22;97836.50;;;16.31;68.10
50282;BME280;36176;51.506;10.272;2023-03-13T10:21:52;97830.19;;;15.94;69.80
50282;BME280;36176;51.506;10.272;2023-03-13T10:24:26;97842.00;;;15.92;69.15
50282;BME280;36176;51.506;10.272;2023-03-13T10:26:56;97815.66;;;15.60;69.86
50282;BME280;36176;51.506;10.272;2023-03-13T10:29:24;97804.88;;;15.51;70.76
50282;BME280;36176;51.506;10.272;2023-03-13T10:31:55;97833.81;;;15.27;71.38
50282;BME280;36176;51.506;10.272;2023-03-13T10:34:24;97817.69;;;15.09;70.91
50282;BME280;36176;51.506;10.272;2023-03-13T10:36:58;97832.00;;;14.88;72.28
50282;BME280;36176;51.506;10.272;2023-03-13T10:39:26;97833.84;;;14.88;72.05
50282;BME280;36176;51.506;10.272;2023-03-13T10:42:10;97835.78;;;14.96;72.29
50282;BME280;36176;51.506;10.272;2023-03-13T10:44:44;97827.78;;;14.96;71.10
50282;BME280;36176;51.506;10.272;2023-03-13T10:47:12;97828.91;;;14.93;71.28
50282;BME280;36176;51.506;10.272;2023-03-13T10:49:47;97809.00;;;14.78;71.45
50282;BME280;36176;51.506;10.272;2023-03-13T10:52:33;97821.63;;;14.76;71.76
50282;BME280;36176;51.506;10.272;2023-03-13T10:55:02;97823.69;;;14.62;72.39
50282;BME280;36176;51.506;10.272;2023-03-13T10:57:31;97819.06;;;14.55;72.97
50282;BME280;36176;51.506;10.272;2023-03-13T10:59:58;97819.13;;;14.43;73.17
50282;BME280;36176;51.506;10.272;2023-03-13T11:02:34;97824.47;;;14.43;73.02
50282;BME280;36176;51.506;10.272;2023-03-13T11:05:27;97827.97;;;14.34;74.06
50282;BME280;36176;51.506;10.272;2023-03-13T11:07:52;97810.56;;;14.30;73.85
50282;BME280;36176;51.506;10.272;2023-03-13T11:10:20;97823.28;;;14.26;74.26
50282;BME280;36176;51.506;10.272;2023-03-13T11:12:48;97820.13;;;14.42;73.08
50282;BME280;36176;51.506;10.272;2023-03-13T11:15:41;97825.38;;;14.54;73.98
50282;BME280;36176;51.506;10.272;2023-03-13T11:18:13;97812.28;;;14.51;74.12
50282;BME280;36176;51.506;10.272;2023-03-13T11:20:42;97815.09;;;14.49;74.01
50282;BME280;36176;51.506;10.272;2023-03-13T11:23:13;97802.94;;;14.56;73.74
50282;BME280;36176;51.506;10.272;2023-03-13T11:28:43;97801.53;;;14.72;74.32
50282;BME280;36176;51.506;10.272;2023-03-13T11:31:14;97783.16;;;14.68;73.10
50282;BME280;36176;51.506;10.272;2023-03-13T11:36:29;97789.47;;;14.67;73.78
50282;BME280;36176;51.506;10.272;2023-03-13T11:39:15;97792.56;;;14.82;72.89
50282;BME280;36176;51.506;10.272;2023-03-13T11:46:59;97774.88;;;15.01;73.44
50282;BME280;36176;51.506;10.272;2023-03-13T11:55:21;97758.81;;;15.87;71.28
50282;BME280;36176;51.506;10.272;2023-03-13T12:05:48;97751.38;;;16.54;67.64
50282;BME280;36176;51.506;10.272;2023-03-13T12:08:19;97747.13;;;16.43;68.51
50282;BME280;36176;51.506;10.272;2023-03-13T12:10:59;97750.38;;;16.37;68.73
50282;BME280;36176;51.506;10.272;2023-03-13T12:13:37;97748.53;;;16.20;68.62
50282;BME280;36176;51.506;10.272;2023-03-13T12:16:10;97757.97;;;15.86;69.61
50282;BME280;36176;51.506;10.272;2023-03-13T12:18:38;97759.03;;;15.66;71.06
50282;BME280;36176;51.506;10.272;2023-03-13T12:21:22;97748.66;;;15.53;71.65
50282;BME280;36176;51.506;10.272;2023-03-13T12:26:44;97730.47;;;15.76;70.99
50282;BME280;36176;51.506;10.272;2023-03-13T12:29:19;97739.97;;;15.88;70.42
50282;BME280;36176;51.506;10.272;2023-03-13T12:31:56;97731.91;;;15.98;70.94
50282;BME280;36176;51.506;10.272;2023-03-13T12:34:32;97729.75;;;16.02;69.78
50282;BME280;36176;51.506;10.272;2023-03-13T12:39:41;97717.16;;;15.94;69.31
50282;BME280;36176;51.506;10.272;2023-03-13T12:42:19;97703.69;;;15.95;69.60
50282;BME280;36176;51.506;10.272;2023-03-13T12:44:49;97703.22;;;16.00;69.23
50282;BME280;36176;51.506;10.272;2023-03-13T12:47:22;97695.53;;;15.97;69.50
50282;BME280;36176;51.506;10.272;2023-03-13T12:50:15;97699.31;;;15.94;69.61
50282;BME280;36176;51.506;10.272;2023-03-13T12:55:21;97693.56;;;16.17;68.66
50282;BME280;36176;51.506;10.272;2023-03-13T13:00:20;97679.63;;;15.95;69.39
50282;BME280;36176;51.506;10.272;2023-03-13T13:03:00;97674.59;;;15.92;69.52
50282;BME280;36176;51.506;10.272;2023-03-13T13:05:28;97673.22;;;15.88;70.15
50282;BME280;36176;51.506;10.272;2023-03-13T13:07:55;97666.72;;;15.91;70.01
50282;BME280;36176;51.506;10.272;2023-03-13T13:10:25;97659.91;;;15.79;70.23
50282;BME280;36176;51.506;10.272;2023-03-13T13:15:43;97652.22;;;15.93;70.85
50282;BME280;36176;51.506;10.272;2023-03-13T13:18:13;97666.66;;;15.83;71.00
50282;BME280;36176;51.506;10.272;2023-03-13T13:20:45;97650.47;;;15.84;71.34
50282;BME280;36176;51.506;10.272;2023-03-13T13:23:29;97644.97;;;15.86;71.28
50282;BME280;36176;51.506;10.272;2023-03-13T13:28:59;97651.09;;;15.96;70.81
50282;BME280;36176;51.506;10.272;2023-03-13T13:32:10;97658.50;;;16.02;71.31
50282;BME280;36176;51.506;10.272;2023-03-13T13:36:57;97648.63;;;15.85;70.70
50282;BME280;36176;51.506;10.272;2023-03-13T13:39:41;97652.34;;;15.74;71.54
50282;BME280;36176;51.506;10.272;2023-03-13T13:44:58;97659.38;;;15.65;71.99
50282;BME280;36176;51.506;10.272;2023-03-13T13:47:27;97654.91;;;15.66;72.90
50282;BME280;36176;51.506;10.272;2023-03-13T13:49:57;97649.81;;;15.72;72.14
50282;BME280;36176;51.506;10.272;2023-03-13T13:52:31;97635.81;;;15.88;71.39
50282;BME280;36176;51.506;10.272;2023-03-13T13:54:58;97646.88;;;15.93;70.88
50282;BME280;36176;51.506;10.272;2023-03-13T13:57:26;97662.84;;;16.03;71.01
50282;BME280;36176;51.506;10.272;2023-03-13T13:59:59;97645.94;;;15.85;71.07
50282;BME280;36176;51.506;10.272;2023-03-13T14:02:36;97646.72;;;15.77;71.67
50282;BME280;36176;51.506;10.272;2023-03-13T14:05:16;97641.84;;;15.63;71.65
50282;BME280;36176;51.506;10.272;2023-03-13T14:07:51;97645.75;;;15.41;73.31
50282;BME280;36176;51.506;10.272;2023-03-13T14:13:10;97652.13;;;15.20;75.20
50282;BME280;36176;51.506;10.272;2023-03-13T14:15:39;97653.16;;;15.09;76.04
50282;BME280;36176;51.506;10.272;2023-03-13T14:18:26;97648.69;;;15.00;77.61
50282;BME280;36176;51.506;10.272;2023-03-13T14:21:03;97635.66;;;14.97;78.48
50282;BME280;36176;51.506;10.272;2023-03-13T14:23:40;97624.81;;;14.99;77.13